createdAt,value
2019-01-29T00:00:40.903Z,2.76
2019-01-29T00:03:09.593Z,2.90
2019-01-29T00:05:38.216Z,2.76
2019-01-29T00:08:07.264Z,2.58
2019-01-29T00:10:35.887Z,2.86
2019-01-29T00:13:04.689Z,2.77
2019-01-29T00:15:33.461Z,2.93
2019-01-29T00:18:02.097Z,2.87
2019-01-29T00:20:30.717Z,2.68
2019-01-29T00:22:59.463Z,2.49
2019-01-29T00:25:28.172Z,2.53
2019-01-29T00:27:56.810Z,2.59
2019-01-29T00:30:25.486Z,2.76
2019-01-29T00:32:54.197Z,2.93
2019-01-29T00:35:22.958Z,2.71
2019-01-29T00:37:51.908Z,2.87
2019-01-29T00:40:20.607Z,2.61
2019-01-29T00:42:49.314Z,2.57
2019-01-29T00:45:18.873Z,2.66
2019-01-29T00:47:47.510Z,2.80
2019-01-29T00:50:16.929Z,2.74
2019-01-29T00:52:46.153Z,2.77
2019-01-29T00:55:16.995Z,2.96
2019-01-29T00:57:45.627Z,2.88
2019-01-29T01:00:22.797Z,2.74
2019-01-29T01:02:51.706Z,2.69
2019-01-29T01:05:20.633Z,2.85
2019-01-29T01:07:49.305Z,2.94
2019-01-29T01:10:20.509Z,2.87
2019-01-29T01:12:49.445Z,2.90
2019-01-29T01:15:18.380Z,3.05
2019-01-29T01:17:47.280Z,3.27
2019-01-29T01:20:17.681Z,3.15
2019-01-29T01:22:51.083Z,3.21
2019-01-29T01:25:17.391Z,3.22
2019-01-29T01:27:55.272Z,3.30
2019-01-29T01:30:23.986Z,3.15
2019-01-29T01:32:52.620Z,3.07
2019-01-29T01:35:21.254Z,3.00
2019-01-29T01:37:50.033Z,3.05
2019-01-29T01:40:21.368Z,3.16
2019-01-29T01:42:50.209Z,3.24
2019-01-29T01:45:18.928Z,3.43
2019-01-29T01:47:47.561Z,3.21
2019-01-29T01:50:16.388Z,3.30
2019-01-29T01:52:45.134Z,3.37
2019-01-29T01:55:16.035Z,3.16
2019-01-29T01:57:44.771Z,3.12
2019-01-29T02:00:20.906Z,3.05
2019-01-29T02:02:49.801Z,3.17
2019-01-29T02:05:18.606Z,3.04
2019-01-29T02:07:47.245Z,3.10
2019-01-29T02:10:24.246Z,3.21
2019-01-29T02:12:52.950Z,3.37
2019-01-29T02:15:21.760Z,3.21
2019-01-29T02:17:50.385Z,3.23
2019-01-29T02:20:19.116Z,3.22
2019-01-29T02:22:47.870Z,3.02
2019-01-29T02:25:16.590Z,2.97
2019-01-29T02:27:45.304Z,3.14
2019-01-29T02:30:16.642Z,2.94
2019-01-29T02:32:45.274Z,3.07
2019-01-29T02:35:13.999Z,3.16
2019-01-29T02:37:42.846Z,3.00
2019-01-29T02:40:16.977Z,2.98
2019-01-29T02:42:45.610Z,2.94
2019-01-29T02:45:15.985Z,2.84
2019-01-29T02:47:44.697Z,2.99
2019-01-29T02:50:17.748Z,3.03
2019-01-29T02:52:46.505Z,3.09
2019-01-29T02:55:15.823Z,3.04
2019-01-29T02:57:44.521Z,3.03
2019-01-29T03:00:18.901Z,3.12
2019-01-29T03:02:47.701Z,3.27
2019-01-29T03:05:17.410Z,3.16
2019-01-29T03:07:46.806Z,3.24
2019-01-29T03:10:20.836Z,3.20
2019-01-29T03:12:49.574Z,3.31
2019-01-29T03:15:20.970Z,3.20
2019-01-29T03:17:49.715Z,3.31
2019-01-29T03:20:18.508Z,3.46
2019-01-29T03:22:47.153Z,3.36
2019-01-29T03:25:15.856Z,3.21
2019-01-29T03:27:44.539Z,3.21
2019-01-29T03:30:18.570Z,3.05
2019-01-29T03:32:47.218Z,3.17
2019-01-29T03:35:16.193Z,3.25
2019-01-29T03:37:44.901Z,3.29
2019-01-29T03:40:19.137Z,3.13
2019-01-29T03:42:47.812Z,3.15
2019-01-29T03:45:23.278Z,3.08
2019-01-29T03:47:52.726Z,3.10
2019-01-29T03:50:22.819Z,3.10
2019-01-29T03:52:52.319Z,3.21
2019-01-29T03:55:21.049Z,3.23
2019-01-29T03:57:49.678Z,3.31
2019-01-29T04:00:26.390Z,3.34
2019-01-29T04:02:55.241Z,3.41
2019-01-29T04:05:23.935Z,3.32
2019-01-29T04:07:52.763Z,3.48
2019-01-29T04:10:21.701Z,3.37
2019-01-29T04:12:50.592Z,3.48
2019-01-29T04:15:23.619Z,3.53
2019-01-29T04:17:57.514Z,3.36
2019-01-29T04:20:26.286Z,3.25
2019-01-29T04:22:55.325Z,3.22
2019-01-29T04:25:24.072Z,3.10
2019-01-29T04:27:52.758Z,3.18
2019-01-29T04:30:22.907Z,3.19
2019-01-29T04:32:51.534Z,3.16
2019-01-29T04:35:20.268Z,3.20
2019-01-29T04:37:49.166Z,3.22
2019-01-29T04:40:19.501Z,3.31
2019-01-29T04:42:48.327Z,3.44
2019-01-29T04:45:18.087Z,3.32
2019-01-29T04:47:46.779Z,3.23
2019-01-29T04:50:18.214Z,3.39
2019-01-29T04:52:47.028Z,3.38
2019-01-29T04:55:17.554Z,3.43
2019-01-29T04:57:46.261Z,3.30
2019-01-29T05:00:19.992Z,3.26
2019-01-29T05:02:48.625Z,3.15
2019-01-29T05:05:18.614Z,3.22
2019-01-29T05:07:47.303Z,3.25
2019-01-29T05:10:18.061Z,3.30
2019-01-29T05:12:46.755Z,3.42
2019-01-29T05:15:19.987Z,3.45
2019-01-29T05:17:48.635Z,3.59
2019-01-29T05:20:19.166Z,3.73
2019-01-29T05:22:48.337Z,3.61
2019-01-29T05:25:17.364Z,3.61
2019-01-29T05:27:46.073Z,3.52
2019-01-29T05:30:17.056Z,3.52
2019-01-29T05:32:45.874Z,3.62
2019-01-29T05:35:14.771Z,3.56
2019-01-29T05:37:43.451Z,3.64
2019-01-29T05:40:17.361Z,3.78
2019-01-29T05:42:45.980Z,3.69
2019-01-29T05:45:17.152Z,3.61
2019-01-29T05:47:45.872Z,3.70
2019-01-29T05:50:15.617Z,3.52
2019-01-29T05:52:44.294Z,3.37
2019-01-29T05:55:14.616Z,3.36
2019-01-29T05:57:43.300Z,3.32
2019-01-29T06:00:20.885Z,3.29
2019-01-29T06:02:55.664Z,3.35
2019-01-29T06:05:24.504Z,3.25
2019-01-29T06:07:53.417Z,3.31
2019-01-29T06:10:22.118Z,3.23
2019-01-29T06:12:50.741Z,3.30
2019-01-29T06:15:24.626Z,3.52
2019-01-29T06:17:53.422Z,3.56
2019-01-29T06:20:24.532Z,3.42
2019-01-29T06:22:53.261Z,3.44
2019-01-29T06:25:21.944Z,3.57
2019-01-29T06:27:50.653Z,3.63
2019-01-29T06:30:21.735Z,3.53
2019-01-29T06:32:50.661Z,3.68
2019-01-29T06:35:20.262Z,3.70
2019-01-29T06:37:49.257Z,3.58
2019-01-29T06:40:22.860Z,3.76
2019-01-29T06:42:51.619Z,3.78
2019-01-29T06:45:22.606Z,3.77
2019-01-29T06:47:51.443Z,3.90
2019-01-29T06:50:25.283Z,3.97
2019-01-29T06:52:54.170Z,3.95
2019-01-29T06:55:23.804Z,3.93
2019-01-29T06:57:55.383Z,3.84
2019-01-29T07:00:25.458Z,3.92
2019-01-29T07:02:54.366Z,3.98
2019-01-29T07:05:23.081Z,4.18
2019-01-29T07:07:52.050Z,4.28
2019-01-29T07:10:22.148Z,3.94
2019-01-29T07:12:50.777Z,4.07
2019-01-29T07:15:39.402Z,4.22
2019-01-29T07:18:10.162Z,4.09
2019-01-29T07:20:38.871Z,4.01
2019-01-29T07:23:07.530Z,4.11
2019-01-29T07:25:36.242Z,4.33
2019-01-29T07:28:04.903Z,4.21
2019-01-29T07:30:33.654Z,4.32
2019-01-29T07:33:02.341Z,4.58
2019-01-29T07:35:30.981Z,4.52
2019-01-29T07:37:59.652Z,4.70
2019-01-29T07:40:28.564Z,4.97
2019-01-29T07:42:57.197Z,5.26
2019-01-29T07:45:26.106Z,5.61
2019-01-29T07:47:54.900Z,6.19
2019-01-29T07:50:23.534Z,6.52
2019-01-29T07:52:52.272Z,7.00
2019-01-29T07:55:20.991Z,7.24
2019-01-29T07:57:49.624Z,7.73
2019-01-29T08:00:19.026Z,8.20
2019-01-29T08:02:47.739Z,7.71
2019-01-29T08:05:16.442Z,7.10
2019-01-29T08:07:46.336Z,6.86
2019-01-29T08:10:16.640Z,6.39
2019-01-29T08:12:45.335Z,6.08
2019-01-29T08:15:16.927Z,6.15
2019-01-29T08:17:45.558Z,6.48
2019-01-29T08:20:22.305Z,6.73
2019-01-29T08:22:51.009Z,6.68
2019-01-29T08:25:19.652Z,6.30
2019-01-29T08:27:48.554Z,6.10
2019-01-29T08:30:20.374Z,6.01
2019-01-29T08:32:49.083Z,6.07
2019-01-29T08:35:18.656Z,6.05
2019-01-29T08:37:47.285Z,6.04
2019-01-29T08:40:17.086Z,6.17
2019-01-29T08:42:46.104Z,6.35
2019-01-29T08:45:17.023Z,6.36
2019-01-29T08:47:45.652Z,6.24
2019-01-29T08:50:27.507Z,5.96
2019-01-29T08:52:56.223Z,5.65
2019-01-29T08:55:25.072Z,5.70
2019-01-29T08:57:53.747Z,5.58
2019-01-29T09:00:23.450Z,5.62
2019-01-29T09:02:52.101Z,5.82
2019-01-29T09:05:20.863Z,5.69
2019-01-29T09:07:49.595Z,5.44
2019-01-29T09:10:19.831Z,5.41
2019-01-29T09:12:48.508Z,5.27
2019-01-29T09:15:18.955Z,5.24
2019-01-29T09:17:47.763Z,5.40
2019-01-29T09:20:18.884Z,5.31
2019-01-29T09:22:47.576Z,5.36
2019-01-29T09:25:21.027Z,5.59
2019-01-29T09:27:48.217Z,5.48
2019-01-29T09:30:20.820Z,5.33
2019-01-29T09:32:49.763Z,5.38
2019-01-29T09:35:18.516Z,5.50
2019-01-29T09:37:47.243Z,5.55
2019-01-29T09:40:18.784Z,5.46
2019-01-29T09:42:47.864Z,5.65
2019-01-29T09:45:18.566Z,5.85
2019-01-29T09:47:47.299Z,6.03
2019-01-29T09:50:21.327Z,6.23
2019-01-29T09:52:50.125Z,6.29
2019-01-29T09:55:28.806Z,6.20
2019-01-29T09:57:52.016Z,6.20
2019-01-29T10:00:26.784Z,6.19
2019-01-29T10:02:55.489Z,6.19
2019-01-29T10:05:24.369Z,6.39
2019-01-29T10:07:53.007Z,6.46
2019-01-29T10:10:21.643Z,6.64
2019-01-29T10:12:50.321Z,6.66
2019-01-29T10:15:31.094Z,6.90
2019-01-29T10:17:59.884Z,7.12
2019-01-29T10:20:31.864Z,7.09
2019-01-29T10:23:00.573Z,7.27
2019-01-29T10:25:37.521Z,7.17
2019-01-29T10:28:00.018Z,7.41
2019-01-29T10:30:28.655Z,7.53
2019-01-29T10:32:57.489Z,7.75
2019-01-29T10:35:28.527Z,7.53
2019-01-29T10:37:57.226Z,7.43
2019-01-29T10:40:29.109Z,7.44
2019-01-29T10:42:58.757Z,7.35
2019-01-29T10:45:29.850Z,6.89
2019-01-29T10:47:58.494Z,6.35
2019-01-29T10:50:29.497Z,6.78
2019-01-29T10:52:58.550Z,6.72
2019-01-29T10:55:27.647Z,6.63
2019-01-29T10:57:56.400Z,6.62
2019-01-29T11:00:37.298Z,6.69
2019-01-29T11:03:07.252Z,6.90
2019-01-29T11:05:35.889Z,6.72
2019-01-29T11:08:04.920Z,6.87
2019-01-29T11:10:33.622Z,7.27
2019-01-29T11:13:02.331Z,7.48
2019-01-29T11:15:33.894Z,7.30
2019-01-29T11:18:02.883Z,7.29
2019-01-29T11:20:31.591Z,7.70
2019-01-29T11:23:00.310Z,7.86
2019-01-29T11:25:30.833Z,7.91
2019-01-29T11:27:59.553Z,8.11
2019-01-29T11:30:30.408Z,8.16
2019-01-29T11:32:59.354Z,8.10
2019-01-29T11:35:28.065Z,8.17
2019-01-29T11:37:56.698Z,8.24
2019-01-29T11:40:30.622Z,8.23
2019-01-29T11:42:59.258Z,8.24
2019-01-29T11:45:42.071Z,8.07
2019-01-29T11:48:10.778Z,7.98
2019-01-29T11:50:39.503Z,8.12
2019-01-29T11:53:08.188Z,7.89
2019-01-29T11:55:36.898Z,7.96
2019-01-29T11:58:05.820Z,7.79
2019-01-29T12:00:56.819Z,7.96
2019-01-29T12:03:25.592Z,7.97
2019-01-29T12:05:54.278Z,7.66
2019-01-29T12:08:23.282Z,7.54
2019-01-29T12:10:51.948Z,7.40
2019-01-29T12:13:20.670Z,7.42
2019-01-29T12:15:49.342Z,7.23
2019-01-29T12:18:18.054Z,6.86
2019-01-29T12:20:46.752Z,6.92
2019-01-29T12:23:15.503Z,6.99
2019-01-29T12:25:49.874Z,6.98
2019-01-29T12:28:18.504Z,7.08
2019-01-29T12:30:47.257Z,7.16
2019-01-29T12:33:16.559Z,7.27
2019-01-29T12:35:45.277Z,7.33
2019-01-29T12:38:14.071Z,7.18
2019-01-29T12:40:42.778Z,7.33
2019-01-29T12:43:11.477Z,7.22
2019-01-29T12:45:40.167Z,7.20
2019-01-29T12:48:08.966Z,7.38
2019-01-29T12:50:39.406Z,7.67
2019-01-29T12:53:09.701Z,7.79
2019-01-29T12:55:38.329Z,7.78
2019-01-29T12:58:07.086Z,7.91
2019-01-29T13:00:43.310Z,7.97
2019-01-29T13:03:11.938Z,8.03
2019-01-29T13:05:40.635Z,7.87
2019-01-29T13:08:09.904Z,7.85
2019-01-29T13:10:38.529Z,7.78
2019-01-29T13:13:07.457Z,7.79
2019-01-29T13:15:36.500Z,7.73
2019-01-29T13:18:06.015Z,7.62
2019-01-29T13:20:34.685Z,7.48
2019-01-29T13:23:03.382Z,7.28
2019-01-29T13:25:32.121Z,7.19
2019-01-29T13:28:00.824Z,7.20
2019-01-29T13:30:37.448Z,7.33
2019-01-29T13:33:11.622Z,7.23
2019-01-29T13:35:40.738Z,7.07
2019-01-29T13:38:10.575Z,6.93
2019-01-29T13:40:39.225Z,6.84
2019-01-29T13:43:08.074Z,6.66
2019-01-29T13:45:36.927Z,6.72
2019-01-29T13:48:06.293Z,6.63
2019-01-29T13:50:43.883Z,6.36
2019-01-29T13:53:12.517Z,6.39
2019-01-29T13:55:41.284Z,6.41
2019-01-29T13:58:10.083Z,6.42
2019-01-29T14:00:40.410Z,6.38
2019-01-29T14:03:11.251Z,6.51
2019-01-29T14:05:40.056Z,6.39
2019-01-29T14:08:08.855Z,6.30
2019-01-29T14:10:37.923Z,6.30
2019-01-29T14:13:06.563Z,6.35
2019-01-29T14:15:40.200Z,6.35
2019-01-29T14:18:09.620Z,6.12
2019-01-29T14:20:38.264Z,6.26
2019-01-29T14:23:08.385Z,6.39
2019-01-29T14:25:37.255Z,6.36
2019-01-29T14:28:06.589Z,6.40
2019-01-29T14:30:35.404Z,6.47
2019-01-29T14:33:04.883Z,6.46
2019-01-29T14:35:33.653Z,6.22
2019-01-29T14:38:17.350Z,6.15
2019-01-29T14:40:46.075Z,6.17
2019-01-29T14:43:26.387Z,6.37
2019-01-29T14:45:55.092Z,6.32
2019-01-29T14:48:23.807Z,6.30
2019-01-29T14:50:52.509Z,6.16
2019-01-29T14:53:21.522Z,6.17
2019-01-29T14:55:50.258Z,6.14
2019-01-29T14:58:19.136Z,6.16
2019-01-29T15:00:48.246Z,6.19
2019-01-29T15:03:16.980Z,6.11
2019-01-29T15:05:45.763Z,6.05
2019-01-29T15:08:14.469Z,5.98
2019-01-29T15:10:43.184Z,6.10
2019-01-29T15:13:13.990Z,6.05
2019-01-29T15:15:47.079Z,5.99
2019-01-29T15:18:23.339Z,6.04
2019-01-29T15:20:51.978Z,6.04
2019-01-29T15:23:20.634Z,6.03
2019-01-29T15:25:49.423Z,6.03
2019-01-29T15:28:18.137Z,6.01
2019-01-29T15:30:46.785Z,5.94
2019-01-29T15:33:15.464Z,5.91
2019-01-29T15:35:44.196Z,5.91
2019-01-29T15:38:12.906Z,5.90
2019-01-29T15:40:41.809Z,5.85
2019-01-29T15:43:10.510Z,5.89
2019-01-29T15:45:39.224Z,5.94
2019-01-29T15:48:07.919Z,5.78
2019-01-29T15:50:37.130Z,5.78
2019-01-29T15:53:06.847Z,5.82
2019-01-29T15:55:35.518Z,5.79
2019-01-29T15:58:05.457Z,5.69
2019-01-29T16:00:35.673Z,5.67
2019-01-29T16:03:04.863Z,5.67
2019-01-29T16:05:35.842Z,5.62
2019-01-29T16:08:06.586Z,5.59
2019-01-29T16:10:40.739Z,5.51
2019-01-29T16:13:09.475Z,5.42
2019-01-29T16:15:38.530Z,5.54
2019-01-29T16:18:07.377Z,5.58
2019-01-29T16:20:36.100Z,5.45
2019-01-29T16:23:05.139Z,5.50
2019-01-29T16:25:35.664Z,5.47
2019-01-29T16:28:04.492Z,5.46
2019-01-29T16:30:35.216Z,5.48
2019-01-29T16:33:09.764Z,5.41
2019-01-29T16:35:40.520Z,5.43
2019-01-29T16:38:09.536Z,5.36
2019-01-29T16:40:43.016Z,5.38
2019-01-29T16:43:11.762Z,5.38
2019-01-29T16:45:40.528Z,5.33
2019-01-29T16:48:10.491Z,5.33
2019-01-29T16:50:39.154Z,5.23
2019-01-29T16:53:08.876Z,5.10
2019-01-29T16:55:37.762Z,5.09
2019-01-29T16:58:07.137Z,5.08
2019-01-29T17:00:41.021Z,5.09
2019-01-29T17:03:09.726Z,5.12
2019-01-29T17:05:38.383Z,5.19
2019-01-29T17:08:07.697Z,5.23
2019-01-29T17:10:36.557Z,5.31
2019-01-29T17:13:06.092Z,5.37
2019-01-29T17:15:36.928Z,5.36
2019-01-29T17:18:07.491Z,5.24
2019-01-29T17:20:41.893Z,5.20
2019-01-29T17:23:11.406Z,5.28
2019-01-29T17:25:40.097Z,5.27
2019-01-29T17:28:08.914Z,5.30
2019-01-29T17:30:39.965Z,5.35
2019-01-29T17:33:09.305Z,5.36
2019-01-29T17:35:39.664Z,5.33
2019-01-29T17:38:08.536Z,5.34
2019-01-29T17:40:37.283Z,5.37
2019-01-29T17:43:06.523Z,5.35
2019-01-29T17:45:38.079Z,5.26
2019-01-29T17:48:07.117Z,5.20
2019-01-29T17:50:38.517Z,5.08
2019-01-29T17:53:07.474Z,5.03
2019-01-29T17:55:37.724Z,4.99
2019-01-29T17:58:07.353Z,5.05
2019-01-29T18:00:37.832Z,4.99
2019-01-29T18:03:07.300Z,5.07
2019-01-29T18:05:36.313Z,5.05
2019-01-29T18:08:05.464Z,5.16
2019-01-29T18:10:34.264Z,5.09
2019-01-29T18:13:03.010Z,5.22
2019-01-29T18:15:32.498Z,5.23
2019-01-29T18:18:01.255Z,5.20
2019-01-29T18:20:29.898Z,5.17
2019-01-29T18:22:58.635Z,5.18
2019-01-29T18:25:27.323Z,5.11
2019-01-29T18:28:01.378Z,5.11
2019-01-29T18:30:29.222Z,5.11
2019-01-29T18:33:03.942Z,5.09
2019-01-29T18:35:32.582Z,5.20
2019-01-29T18:38:01.265Z,5.17
2019-01-29T18:40:36.065Z,5.31
2019-01-29T18:43:05.007Z,5.24
2019-01-29T18:45:33.645Z,5.26
2019-01-29T18:48:02.286Z,5.39
2019-01-29T18:50:30.994Z,5.37
2019-01-29T18:52:59.672Z,5.33
2019-01-29T18:55:28.317Z,5.29
2019-01-29T18:57:56.969Z,5.27
2019-01-29T19:00:26.882Z,5.35
2019-01-29T19:02:55.527Z,5.43
2019-01-29T19:05:26.015Z,5.30
2019-01-29T19:07:54.742Z,5.23
2019-01-29T19:10:23.724Z,5.23
2019-01-29T19:12:52.477Z,5.25
2019-01-29T19:15:26.387Z,5.33
2019-01-29T19:17:55.322Z,5.33
2019-01-29T19:20:28.043Z,5.38
2019-01-29T19:39:24.541Z,5.09
2019-01-29T19:41:53.256Z,5.00
2019-01-29T19:44:21.901Z,4.89
2019-01-29T19:46:50.660Z,4.88
2019-01-29T19:49:19.302Z,4.87
2019-01-29T19:51:49.100Z,4.82
2019-01-29T19:54:18.079Z,4.81
2019-01-29T19:56:46.811Z,4.84
2019-01-29T19:59:15.449Z,4.88
2019-01-29T20:01:44.164Z,4.86
2019-01-29T20:04:12.888Z,4.86
2019-01-29T20:06:41.608Z,4.87
2019-01-29T20:09:12.010Z,4.93
2019-01-29T20:11:40.655Z,4.95
2019-01-29T20:14:09.301Z,5.00
2019-01-29T20:16:38.057Z,5.05
2019-01-29T20:19:06.769Z,5.09
2019-01-29T20:21:35.437Z,5.01
2019-01-29T20:24:04.389Z,5.05
2019-01-29T20:26:33.101Z,5.10
2019-01-29T20:29:01.754Z,5.18
2019-01-29T20:31:30.621Z,5.16
2019-01-29T20:33:59.270Z,5.29
2019-01-29T20:36:27.974Z,5.28
2019-01-29T20:38:56.724Z,5.30
2019-01-29T20:41:25.434Z,5.35
2019-01-29T20:43:54.148Z,5.42
2019-01-29T20:46:22.954Z,5.40
2019-01-29T20:48:51.659Z,5.36
2019-01-29T20:51:20.290Z,5.39
2019-01-29T20:53:48.976Z,5.27
2019-01-29T20:56:17.621Z,5.26
2019-01-29T20:58:52.535Z,5.39
2019-01-29T21:01:16.779Z,5.46
2019-01-29T21:03:45.411Z,5.43
2019-01-29T21:06:14.073Z,5.47
2019-01-29T21:08:42.823Z,5.55
2019-01-29T21:11:11.461Z,5.64
2019-01-29T21:13:40.169Z,5.66
2019-01-29T21:16:08.994Z,5.67
2019-01-29T21:18:37.640Z,5.64
2019-01-29T21:21:06.284Z,5.60
2019-01-29T21:23:35.046Z,5.53
2019-01-29T21:26:03.761Z,5.50
2019-01-29T21:28:32.466Z,5.45
2019-01-29T21:31:01.160Z,5.35
2019-01-29T21:33:29.811Z,5.32
2019-01-29T21:36:05.806Z,5.36
2019-01-29T21:38:34.483Z,5.35
2019-01-29T21:41:03.200Z,5.37
2019-01-29T21:43:31.913Z,5.35
2019-01-29T21:46:00.811Z,5.27
2019-01-29T21:48:29.450Z,5.28
2019-01-29T21:50:58.143Z,5.28
2019-01-29T21:53:26.827Z,5.11
2019-01-29T21:55:55.509Z,5.00
2019-01-29T21:58:24.204Z,5.06
2019-01-29T22:00:52.954Z,5.09
2019-01-29T22:03:21.589Z,5.19
2019-01-29T22:05:50.333Z,5.21
2019-01-29T22:08:19.288Z,5.19
2019-01-29T22:10:48.043Z,5.07
2019-01-29T22:13:16.681Z,5.16
2019-01-29T22:15:45.556Z,5.22
2019-01-29T22:18:14.370Z,5.15
2019-01-29T22:20:43.078Z,5.04
2019-01-29T22:23:11.808Z,4.95
2019-01-29T22:25:40.696Z,5.01
2019-01-29T22:28:09.410Z,5.19
2019-01-29T22:30:40.156Z,5.18
2019-01-29T22:33:08.901Z,5.07
2019-01-29T22:35:37.703Z,5.07
2019-01-29T22:38:06.763Z,5.19
2019-01-29T22:40:35.821Z,5.15
2019-01-29T22:43:05.249Z,5.00
2019-01-29T22:45:33.928Z,5.00
2019-01-29T22:48:04.511Z,4.95
2019-01-29T22:50:36.083Z,4.75
2019-01-29T22:53:05.329Z,4.86
2019-01-29T22:55:34.038Z,4.89
2019-01-29T22:58:02.683Z,4.87
2019-01-29T23:00:51.122Z,4.87
2019-01-29T23:03:22.375Z,4.83
2019-01-29T23:06:12.089Z,4.81
2019-01-29T23:08:40.750Z,4.69
2019-01-29T23:11:09.675Z,4.76
2019-01-29T23:13:38.570Z,4.67
2019-01-29T23:16:07.303Z,4.64
2019-01-29T23:18:35.946Z,4.73
2019-01-29T23:21:04.803Z,4.78
2019-01-29T23:23:33.442Z,4.54
2019-01-29T23:26:02.092Z,4.59
2019-01-29T23:28:30.895Z,4.72
2019-01-29T23:30:59.602Z,4.82
2019-01-29T23:33:28.320Z,4.68
2019-01-29T23:35:56.962Z,4.76
2019-01-29T23:38:25.732Z,4.52
2019-01-29T23:40:54.441Z,4.45
2019-01-29T23:43:23.073Z,4.54
2019-01-29T23:45:51.754Z,4.60
2019-01-29T23:48:20.459Z,4.70
2019-01-29T23:50:49.097Z,4.78
2019-01-29T23:53:17.840Z,4.71
2019-01-29T23:55:46.570Z,4.57
2019-01-29T23:58:15.206Z,4.37
